Time;durP1;ratioP1;P1;durP2;ratioP2;P2;SDS_P1;SDS_P2;PMS_P1;PMS_P2;Temp;Humidity;BMP_temperature;BMP_pressure;BME280_temperature;BME280_humidity;BME280_pressure;Samples;Min_cycle;Max_cycle;Signal;HPM_P1;HPM_P2
2022/04/16 00:00:28;;;;;;;8.77;2.38;;;;;;;6.23;44.02;102518.69;5035007;28;20055;-70
2022/04/16 00:02:55;;;;;;;10.90;2.55;;;;;;;6.58;43.80;102524.69;5052774;28;20068;-70
2022/04/16 00:05:23;;;;;;;8.05;2.47;;;;;;;6.84;43.05;102523.16;5052624;28;20045;-70
2022/04/16 00:08:06;;;;;;;7.45;2.63;;;;;;;6.60;43.62;102525.47;5051574;28;20049;-70
2022/04/16 00:10:35;;;;;;;6.65;2.75;;;;;;;6.45;43.86;102518.34;5052037;28;20049;-70
2022/04/16 00:13:02;;;;;;;9.70;2.97;;;;;;;6.87;43.07;102517.59;5043933;28;20045;-70
2022/04/16 00:15:28;;;;;;;12.55;2.83;;;;;;;6.59;43.88;102523.72;5046336;28;20471;-70
2022/04/16 00:17:55;;;;;;;9.55;2.90;;;;;;;6.57;43.90;102516.78;5052296;28;20049;-70
2022/04/16 00:20:27;;;;;;;9.57;2.53;;;;;;;6.85;43.38;102522.19;5053644;28;20120;-70
2022/04/16 00:22:54;;;;;;;9.40;2.75;;;;;;;6.92;43.09;102515.53;5043042;28;20468;-70
2022/04/16 00:25:21;;;;;;;7.93;2.80;;;;;;;6.87;43.59;102522.09;5051834;28;20104;-70
2022/04/16 00:27:48;;;;;;;9.77;2.95;;;;;;;7.17;42.86;102520.22;5043977;28;20132;-69
2022/04/16 00:30:16;;;;;;;12.43;3.03;;;;;;;6.87;43.58;102525.59;5051307;28;20132;-70
2022/04/16 00:32:44;;;;;;;8.10;3.00;;;;;;;6.84;43.82;102522.25;5050364;28;20048;-70
2022/04/16 00:35:13;;;;;;;9.82;2.78;;;;;;;6.60;44.13;102527.25;5052097;28;20123;-70
2022/04/16 00:37:39;;;;;;;7.95;2.45;;;;;;;6.78;43.96;102523.50;5050820;28;20044;-70
2022/04/16 00:40:06;;;;;;;9.38;2.10;;;;;;;6.91;43.81;102528.94;5048487;28;20127;-70
2022/04/16 00:42:43;;;;;;;5.13;1.90;;;;;;;6.80;43.59;102531.41;5051963;28;20137;-70
2022/04/16 00:45:11;;;;;;;6.05;1.65;;;;;;;6.63;44.37;102529.72;5051560;28;20127;-70
2022/04/16 00:47:37;;;;;;;7.40;2.17;;;;;;;6.93;43.75;102535.06;5057234;28;20568;-70
2022/04/16 00:50:06;;;;;;;9.50;2.05;;;;;;;6.82;43.50;102537.53;5050875;28;20127;-70
2022/04/16 00:52:32;;;;;;;9.65;1.77;;;;;;;6.33;45.05;102538.59;5050752;28;20132;-70
2022/04/16 00:54:58;;;;;;;6.72;1.98;;;;;;;6.53;44.57;102539.22;5050458;28;20127;-70
2022/04/16 00:57:25;;;;;;;7.82;2.05;;;;;;;6.54;44.92;102536.47;5051025;28;20523;-70
2022/04/16 00:59:53;;;;;;;8.80;2.10;;;;;;;7.08;43.72;102533.28;5051774;28;20434;-70
2022/04/16 01:02:21;;;;;;;6.93;1.65;;;;;;;6.80;44.44;102528.75;5047441;28;20128;-70
2022/04/16 01:04:48;;;;;;;8.55;2.22;;;;;;;7.20;43.43;102540.56;5042779;28;20052;-70
2022/04/16 01:07:25;;;;;;;5.35;1.85;;;;;;;6.85;44.66;102540.00;5033208;28;20127;-70
2022/04/16 01:09:52;;;;;;;7.95;1.90;;;;;;;6.54;45.28;102539.16;5050174;28;20047;-70
2022/04/16 01:12:19;;;;;;;9.35;2.17;;;;;;;7.11;44.14;102541.09;5038883;28;20045;-70
2022/04/16 01:14:46;;;;;;;11.93;2.22;;;;;;;6.87;44.52;102544.28;5029663;28;20120;-70
2022/04/16 01:17:13;;;;;;;8.65;2.00;;;;;;;7.01;44.47;102540.78;5030129;28;20092;-70
2022/04/16 01:19:42;;;;;;;6.95;1.70;;;;;;;6.66;44.79;102549.09;5028998;28;20069;-69
2022/04/16 01:22:12;;;;;;;7.85;1.85;;;;;;;6.65;45.14;102550.03;5049696;28;20072;-70
2022/04/16 01:24:43;;;;;;;9.10;2.00;;;;;;;6.69;45.49;102548.91;5049020;28;20124;-69
2022/04/16 01:27:10;;;;;;;11.32;1.55;;;;;;;6.92;44.83;102546.69;5051487;28;20525;-69
2022/04/16 01:29:37;;;;;;;6.20;1.60;;;;;;;6.78;45.42;102549.34;5050871;28;20072;-70
2022/04/16 01:32:04;;;;;;;7.88;1.70;;;;;;;6.79;45.32;102551.03;5049775;28;20048;-70
2022/04/16 01:34:31;;;;;;;6.00;1.80;;;;;;;6.92;44.76;102547.56;5057496;28;20045;-70
2022/04/16 01:37:02;;;;;;;6.78;1.70;;;;;;;6.95;44.91;102542.03;5050989;28;20041;-70
2022/04/16 01:39:29;;;;;;;7.50;1.70;;;;;;;6.77;45.38;102551.13;5055028;28;20041;-70
2022/04/16 01:41:57;;;;;;;5.95;1.73;;;;;;;6.68;45.73;102552.53;5055516;28;20037;-70
2022/04/16 01:44:24;;;;;;;10.20;2.38;;;;;;;6.77;45.52;102550.25;5054920;28;20045;-70
2022/04/16 01:46:50;;;;;;;4.47;1.23;;;;;;;6.57;45.90;102554.97;5054912;28;20052;-69
2022/04/16 01:49:20;;;;;;;7.68;2.10;;;;;;;6.81;45.16;102560.69;5054913;28;20167;-70
2022/04/16 01:51:47;;;;;;;5.90;1.67;;;;;;;7.00;44.81;102551.56;5051737;28;20068;-70
2022/04/16 01:54:14;;;;;;;5.32;1.98;;;;;;;6.73;45.47;102554.06;5035818;28;20053;-70
2022/04/16 01:56:40;;;;;;;5.68;1.75;;;;;;;6.86;45.42;102558.59;5034677;28;20077;-70
2022/04/16 01:59:08;;;;;;;7.53;1.80;;;;;;;7.18;44.76;102553.97;5033949;28;20121;-70
2022/04/16 02:01:35;;;;;;;10.43;1.80;;;;;;;6.65;45.55;102560.72;5033900;28;20438;-70
2022/04/16 02:04:01;;;;;;;4.25;1.80;;;;;;;6.60;45.54;102557.47;5034241;28;20046;-70
2022/04/16 02:06:28;;;;;;;6.63;2.00;;;;;;;5.80;47.53;102565.53;5033900;28;20504;-70
2022/04/16 02:08:54;;;;;;;4.93;1.83;;;;;;;6.13;46.72;102566.31;5034200;28;20072;-70
2022/04/16 02:11:21;;;;;;;7.60;1.90;;;;;;;6.39;46.52;102559.56;5034058;28;20047;-70
2022/04/16 02:13:47;;;;;;;4.57;1.83;;;;;;;5.76;47.42;102562.16;5033908;28;20508;-70
2022/04/16 02:16:15;;;;;;;7.63;2.08;;;;;;;5.79;47.84;102562.00;5034064;28;20057;-69
2022/04/16 02:18:42;;;;;;;9.02;2.03;;;;;;;5.39;48.72;102565.97;5034057;28;20045;-69
2022/04/16 02:21:10;;;;;;;11.75;1.83;;;;;;;5.33;48.76;102563.63;5033794;28;20522;-69
2022/04/16 02:23:37;;;;;;;11.95;2.53;;;;;;;5.19;49.16;102570.53;5033889;28;20045;-70
2022/04/16 02:26:06;;;;;;;7.30;1.83;;;;;;;5.41;48.63;102569.41;5034042;28;20061;-70
2022/04/16 02:28:34;;;;;;;6.15;1.60;;;;;;;5.69;48.19;102572.28;5034323;28;20049;-69
2022/04/16 02:31:00;;;;;;;8.43;2.13;;;;;;;5.57;47.84;102580.09;5041846;28;20425;-70
2022/04/16 02:33:28;;;;;;;9.15;2.65;;;;;;;5.65;48.06;102581.41;5043221;28;20405;-70
2022/04/16 02:35:54;;;;;;;8.63;1.90;;;;;;;5.57;48.12;102582.75;5033044;28;20068;-70
2022/04/16 02:38:21;;;;;;;11.70;2.75;;;;;;;5.27;48.75;102588.75;5033697;28;20077;-69
2022/04/16 02:40:47;;;;;;;5.82;2.00;;;;;;;5.82;47.71;102584.97;5032494;28;20056;-70
2022/04/16 02:43:14;;;;;;;8.20;1.70;;;;;;;5.61;47.90;102586.97;5035380;28;20128;-69
2022/04/16 02:48:25;;;;;;;8.43;2.22;;;;;;;5.61;48.11;102592.31;5027411;28;20473;-70
2022/04/16 02:50:53;;;;;;;3.72;1.73;;;;;;;6.00;47.22;102589.25;5039474;28;20121;-69
2022/04/16 02:53:20;;;;;;;5.75;1.88;;;;;;;5.44;48.38;102593.19;5048468;28;20145;-68
2022/04/16 02:55:46;;;;;;;8.88;2.20;;;;;;;5.79;47.43;102591.31;5032289;28;20045;-70
2022/04/16 02:58:13;;;;;;;7.07;1.85;;;;;;;5.35;48.47;102591.00;5042681;28;20507;-70
2022/04/16 03:00:41;;;;;;;6.85;2.00;;;;;;;5.38;48.70;102597.03;5053259;28;20131;-69
2022/04/16 03:03:08;;;;;;;8.48;1.88;;;;;;;5.63;48.11;102601.94;5052731;28;20405;-69
2022/04/16 03:05:35;;;;;;;12.20;1.83;;;;;;;5.52;48.38;102604.28;5053135;28;20428;-70
2022/04/16 03:08:02;;;;;;;9.07;2.20;;;;;;;5.71;47.83;102605.03;5052140;28;20125;-70
2022/04/16 03:10:29;;;;;;;6.70;1.80;;;;;;;5.71;47.77;102609.50;5053137;28;20479;-69
2022/04/16 03:12:56;;;;;;;8.30;2.05;;;;;;;6.00;47.19;102615.91;5048242;28;20068;-70
2022/04/16 03:18:09;;;;;;;7.40;2.20;;;;;;;5.71;47.88;102617.50;5052462;28;20118;-70
2022/04/16 03:20:37;;;;;;;4.18;1.45;;;;;;;5.37;48.46;102623.75;5052069;28;20094;-70
2022/04/16 03:23:04;;;;;;;5.88;2.00;;;;;;;5.53;48.67;102622.00;5050122;28;20055;-70
2022/04/16 03:25:31;;;;;;;4.75;1.60;;;;;;;6.04;47.51;102632.59;5041871;28;20183;-70
2022/04/16 03:27:58;;;;;;;7.75;2.03;;;;;;;6.38;46.68;102636.94;5042948;28;20073;-70
2022/04/16 03:30:24;;;;;;;8.45;1.75;;;;;;;6.43;46.72;102634.91;5032428;28;20076;-70
2022/04/16 03:32:52;;;;;;;8.45;2.03;;;;;;;6.64;46.10;102636.34;5045987;28;20068;-69
2022/04/16 03:35:21;;;;;;;6.75;1.90;;;;;;;6.60;46.06;102648.13;5052484;28;20139;-70
2022/04/16 03:37:48;;;;;;;7.50;2.15;;;;;;;6.70;46.16;102645.78;5051468;28;20083;-69
2022/04/16 03:40:15;;;;;;;8.52;2.25;;;;;;;6.24;47.06;102638.53;5040243;28;20056;-69
2022/04/16 03:42:46;;;;;;;7.97;1.88;;;;;;;6.22;46.81;102651.09;5052315;28;20064;-69
2022/04/16 03:45:20;;;;;;;3.37;1.63;;;;;;;6.76;45.52;102648.09;5051754;28;20148;-70
2022/04/16 03:47:48;;;;;;;11.95;2.03;;;;;;;6.32;46.65;102654.16;5047364;28;20275;-70
2022/04/16 03:50:16;;;;;;;3.80;1.98;;;;;;;6.42;46.27;102659.81;5044815;28;20435;-69
2022/04/16 03:52:44;;;;;;;7.38;2.25;;;;;;;6.35;46.67;102659.28;5036109;28;20135;-69
2022/04/16 04:00:46;;;;;;;9.25;2.53;;;;;;;5.67;47.92;102658.56;5030874;28;20076;-70
2022/04/16 04:03:13;;;;;;;7.95;1.90;;;;;;;5.62;48.42;102657.91;5031015;28;20133;-69
2022/04/16 04:05:41;;;;;;;8.93;1.73;;;;;;;6.05;47.01;102660.97;5031371;28;20091;-69
2022/04/16 04:08:09;;;;;;;15.95;2.28;;;;;;;6.43;46.30;102664.22;5031435;28;20049;-69
2022/04/16 04:10:36;;;;;;;10.00;2.20;;;;;;;5.97;47.54;102670.22;5036786;28;20120;-69
2022/04/16 04:13:03;;;;;;;5.82;2.03;;;;;;;6.14;47.32;102661.31;5031979;28;20493;-69
2022/04/16 04:15:30;;;;;;;5.68;1.58;;;;;;;6.22;46.77;102674.25;5032862;28;20041;-68
2022/04/16 04:18:01;;;;;;;9.57;2.15;;;;;;;6.07;47.27;102678.56;5037647;28;20052;-69
2022/04/16 04:20:28;;;;;;;8.20;1.80;;;;;;;6.05;47.42;102685.81;5044482;28;20102;-70
2022/04/16 04:22:55;;;;;;;7.90;2.08;;;;;;;6.13;47.19;102688.06;5033884;28;20048;-69
2022/04/16 04:25:22;;;;;;;5.50;1.67;;;;;;;6.14;47.32;102692.44;5032709;28;20132;-70
2022/04/16 04:27:49;;;;;;;7.65;2.47;;;;;;;5.91;47.79;102697.22;5051335;28;20384;-69
2022/04/16 04:30:15;;;;;;;9.70;2.53;;;;;;;5.62;48.38;102696.06;5051532;28;20048;-69
2022/04/16 04:32:42;;;;;;;5.55;1.73;;;;;;;6.12;47.40;102689.00;5051048;28;20107;-70
2022/04/16 04:35:09;;;;;;;8.05;2.03;;;;;;;5.94;47.96;102696.16;5040993;28;20608;-69
2022/04/16 04:37:35;;;;;;;9.93;2.00;;;;;;;5.82;48.35;102694.16;5028277;28;20068;-69
2022/04/16 04:40:03;;;;;;;5.18;1.75;;;;;;;6.19;47.26;102693.91;5067217;28;20065;-70
2022/04/16 04:42:33;;;;;;;5.15;1.80;;;;;;;6.05;47.71;102706.28;5051848;28;20072;-69
2022/04/16 04:45:11;;;;;;;5.17;1.53;;;;;;;5.97;47.99;102710.19;5048877;28;20045;-69
2022/04/16 04:47:38;;;;;;;7.00;2.00;;;;;;;6.06;47.77;102713.31;5050260;28;20094;-69
2022/04/16 04:50:06;;;;;;;6.70;2.20;;;;;;;6.25;47.36;102711.34;5044504;28;20132;-69
2022/04/16 04:52:36;;;;;;;10.20;2.42;;;;;;;6.28;47.29;102715.72;5046596;28;20418;-70
2022/04/16 04:55:05;;;;;;;5.95;2.20;;;;;;;6.34;47.22;102718.03;5047256;28;20041;-70
2022/04/16 04:57:32;;;;;;;9.90;2.10;;;;;;;6.82;46.00;102719.78;5051655;28;20147;-70
2022/04/16 04:59:58;;;;;;;7.45;2.00;;;;;;;6.36;47.23;102721.50;5032862;28;20508;-69
2022/04/16 05:02:25;;;;;;;9.38;2.25;;;;;;;6.60;46.71;102722.81;5035561;28;20065;-68
2022/04/16 05:04:51;;;;;;;7.63;2.20;;;;;;;6.47;46.75;102721.75;5051358;28;20040;-69
2022/04/16 05:07:18;;;;;;;5.70;1.73;;;;;;;5.81;48.59;102732.41;5050937;28;20080;-70
2022/04/16 05:09:44;;;;;;;6.43;1.90;;;;;;;6.04;47.95;102734.69;5046717;28;20067;-70
2022/04/16 05:12:10;;;;;;;4.78;2.20;;;;;;;6.75;46.40;102731.75;5045774;28;20076;-70
2022/04/16 05:14:37;;;;;;;4.93;1.90;;;;;;;6.53;47.06;102733.88;5045704;28;20505;-69
2022/04/16 05:17:04;;;;;;;11.63;2.20;;;;;;;6.28;46.93;102734.38;5051128;28;20521;-70
2022/04/16 05:19:30;;;;;;;8.98;2.40;;;;;;;6.74;46.20;102745.16;5040184;28;20529;-70
2022/04/16 05:21:57;;;;;;;5.53;2.60;;;;;;;6.47;46.68;102745.75;5048042;28;20045;-69
2022/04/16 05:24:23;;;;;;;7.10;1.98;;;;;;;6.76;46.03;102752.13;5029886;28;20391;-69
2022/04/16 05:26:49;;;;;;;8.30;2.38;;;;;;;6.06;47.29;102753.28;5036480;28;20132;-69
2022/04/16 05:29:17;;;;;;;7.18;2.08;;;;;;;6.21;46.99;102755.13;5043115;28;20079;-69
2022/04/16 05:31:43;;;;;;;8.10;1.90;;;;;;;6.73;45.96;102764.78;5035762;28;20099;-68
2022/04/16 05:34:19;;;;;;;12.27;2.15;;;;;;;6.95;45.53;102760.84;5041850;28;20387;-69
2022/04/16 05:36:48;;;;;;;9.40;2.28;;;;;;;6.70;46.00;102772.03;5034033;28;20099;-70
2022/04/16 05:39:16;;;;;;;4.97;2.10;;;;;;;6.95;45.52;102770.66;5030457;28;20448;-70
2022/04/16 05:41:42;;;;;;;7.10;2.60;;;;;;;6.48;46.28;102782.13;5038143;28;20041;-72
2022/04/16 05:44:09;;;;;;;10.48;2.42;;;;;;;6.81;46.00;102773.25;5030391;28;20045;-71
2022/04/16 05:46:36;;;;;;;8.13;2.42;;;;;;;6.74;45.86;102769.16;5031465;28;20076;-72
2022/04/16 05:49:02;;;;;;;9.55;2.58;;;;;;;6.91;45.59;102785.97;5031819;28;20049;-72
2022/04/16 05:51:30;;;;;;;10.40;1.88;;;;;;;7.01;45.42;102780.13;5030102;28;20462;-71
2022/04/16 05:53:56;;;;;;;6.45;2.08;;;;;;;6.64;46.02;102783.03;5026954;28;20124;-72
2022/04/16 05:56:23;;;;;;;7.22;1.70;;;;;;;6.84;45.57;102783.72;5030156;28;20410;-71
2022/04/16 05:58:50;;;;;;;8.00;2.05;;;;;;;6.85;45.50;102778.31;5029613;28;20041;-72
2022/04/16 06:01:16;;;;;;;7.00;2.50;;;;;;;7.08;45.60;102787.69;5029486;28;20136;-72
2022/04/16 06:03:43;;;;;;;8.75;2.55;;;;;;;7.18;44.77;102790.69;5030952;28;20493;-72
2022/04/16 06:06:10;;;;;;;4.00;2.00;;;;;;;7.25;44.47;102789.38;5023323;28;20481;-71
2022/04/16 06:08:37;;;;;;;9.63;2.50;;;;;;;6.65;45.63;102784.75;5030221;28;20046;-72
2022/04/16 06:11:04;;;;;;;10.70;2.60;;;;;;;7.08;44.83;102790.34;5030937;28;20120;-73
2022/04/16 06:13:31;;;;;;;5.03;1.83;;;;;;;6.41;45.88;102786.94;5028985;28;20045;-72
2022/04/16 06:16:00;;;;;;;5.50;1.70;;;;;;;6.73;45.69;102783.47;5030163;28;20056;-72
2022/04/16 06:18:27;;;;;;;6.65;2.20;;;;;;;6.80;45.49;102777.69;5030421;28;20120;-73
2022/04/16 06:20:56;;;;;;;8.07;2.10;;;;;;;6.70;45.22;102774.69;5029828;28;20041;-73
2022/04/16 06:23:22;;;;;;;7.93;2.47;;;;;;;5.68;47.04;102780.97;5030188;28;20148;-74
2022/04/16 06:25:48;;;;;;;9.48;2.08;;;;;;;6.36;45.80;102777.47;5038294;28;20466;-72
2022/04/16 06:28:15;;;;;;;9.20;2.70;;;;;;;5.86;46.04;102776.50;5034328;28;20496;-73
2022/04/16 06:30:41;;;;;;;7.85;2.50;;;;;;;5.89;46.44;102776.34;5034814;28;20517;-73
2022/04/16 06:33:08;;;;;;;3.85;1.70;;;;;;;6.45;46.08;102783.16;5034332;28;20444;-72
2022/04/16 06:35:34;;;;;;;9.23;2.30;;;;;;;6.87;44.58;102791.56;5040185;28;20159;-72
2022/04/16 06:38:01;;;;;;;8.90;2.42;;;;;;;5.77;46.76;102791.16;5034095;28;20080;-73
2022/04/16 06:40:29;;;;;;;7.10;2.47;;;;;;;6.18;46.14;102796.16;5035885;28;20055;-72
2022/04/16 06:42:55;;;;;;;5.25;2.20;;;;;;;5.93;46.68;102796.53;5043303;28;20064;-73
2022/04/16 06:45:22;;;;;;;7.63;2.28;;;;;;;5.65;47.31;102799.75;5040174;28;20481;-72
2022/04/16 06:47:48;;;;;;;9.50;2.20;;;;;;;6.38;46.06;102796.91;5032677;28;20045;-73
2022/04/16 06:50:15;;;;;;;7.75;2.65;;;;;;;6.19;46.29;102807.66;5033064;28;20048;-72
2022/04/16 06:52:45;;;;;;;8.77;2.60;;;;;;;7.02;44.02;102803.22;5033448;28;20045;-73
2022/04/16 06:55:12;;;;;;;5.85;2.22;;;;;;;7.38;43.85;102801.09;5043867;28;20041;-73
2022/04/16 06:57:38;;;;;;;6.03;2.30;;;;;;;6.73;44.42;102797.66;5053923;28;20041;-72
2022/04/16 07:00:07;;;;;;;5.07;2.20;;;;;;;7.35;43.69;102801.25;5053493;28;20045;-73
2022/04/16 07:02:34;;;;;;;7.45;2.20;;;;;;;7.28;43.94;102805.25;5053782;28;20120;-73
2022/04/16 07:05:02;;;;;;;5.80;2.40;;;;;;;9.13;40.18;102806.47;5052555;28;20041;-73
2022/04/16 07:07:29;;;;;;;3.88;1.77;;;;;;;8.45;40.75;102807.19;5053036;28;20041;-73
2022/04/16 07:09:56;;;;;;;7.25;2.05;;;;;;;7.72;41.84;102804.47;5053082;28;20045;-73
2022/04/16 07:12:22;;;;;;;10.00;2.20;;;;;;;7.33;42.89;102807.66;5052466;28;20131;-73
2022/04/16 07:14:49;;;;;;;9.23;2.13;;;;;;;8.43;41.19;102810.91;5051730;28;20052;-73
2022/04/16 07:17:19;;;;;;;6.00;2.10;;;;;;;7.81;41.01;102806.63;5052413;28;20056;-73
2022/04/16 07:19:45;;;;;;;8.48;2.67;;;;;;;8.52;40.19;102810.34;5052668;28;20041;-73
2022/04/16 07:22:12;;;;;;;9.43;3.63;;;;;;;8.14;41.02;102811.75;5052648;28;20485;-73
2022/04/16 07:24:42;;;;;;;11.20;3.90;;;;;;;8.60;40.14;102810.72;5052125;28;20098;-74
2022/04/16 07:27:08;;;;;;;8.02;3.80;;;;;;;7.99;40.88;102810.03;5052234;28;20190;-73
2022/04/16 07:29:35;;;;;;;11.18;4.10;;;;;;;8.09;40.80;102821.88;5053274;28;20124;-73
2022/04/16 07:32:01;;;;;;;10.80;5.30;;;;;;;7.64;41.59;102818.28;5052587;28;20099;-74
2022/04/16 07:34:28;;;;;;;10.38;5.43;;;;;;;7.77;41.33;102815.72;5052000;28;20516;-73
2022/04/16 07:36:54;;;;;;;12.60;5.97;;;;;;;8.49;40.42;102824.78;5051959;28;20048;-73
2022/04/16 07:39:21;;;;;;;9.27;6.32;;;;;;;9.13;39.08;102809.13;5041120;28;20374;-73
2022/04/16 07:41:51;;;;;;;11.93;6.22;;;;;;;10.19;36.44;102813.63;5052600;28;20172;-73
2022/04/16 07:44:18;;;;;;;8.25;5.63;;;;;;;10.85;35.41;102817.03;5052074;28;20056;-73
2022/04/16 07:46:44;;;;;;;9.40;5.40;;;;;;;10.92;35.44;102820.97;5046510;28;20100;-72
2022/04/16 07:49:11;;;;;;;10.10;5.45;;;;;;;10.61;35.53;102822.31;5032348;28;20151;-72
2022/04/16 07:51:37;;;;;;;11.13;4.93;;;;;;;10.93;35.09;102820.03;5033686;28;20068;-73
2022/04/16 07:54:04;;;;;;;6.43;3.65;;;;;;;11.80;33.49;102818.06;5032772;28;20561;-74
2022/04/16 07:56:30;;;;;;;7.63;3.40;;;;;;;11.37;34.11;102825.78;5033229;28;20497;-73
2022/04/16 07:58:57;;;;;;;4.75;3.42;;;;;;;11.29;33.72;102823.66;5027887;28;20151;-73
2022/04/16 08:01:23;;;;;;;4.50;2.67;;;;;;;9.87;36.06;102820.34;5032172;28;20103;-73
2022/04/16 08:03:50;;;;;;;5.85;3.10;;;;;;;10.93;34.56;102829.91;5028253;28;20147;-74
2022/04/16 08:06:17;;;;;;;5.95;2.70;;;;;;;10.97;33.71;102826.91;5033217;28;20049;-74
2022/04/16 08:08:43;;;;;;;7.05;2.53;;;;;;;10.53;34.06;102834.59;5023510;28;20065;-73
2022/04/16 08:11:11;;;;;;;4.82;2.10;;;;;;;10.49;35.02;102828.53;5046693;28;20053;-73
2022/04/16 08:13:37;;;;;;;6.63;2.10;;;;;;;12.02;32.84;102832.56;5033034;28;20045;-73
2022/04/16 08:16:05;;;;;;;7.22;2.15;;;;;;;12.21;32.21;102843.63;5032529;28;20055;-74
2022/04/16 08:18:31;;;;;;;4.18;1.42;;;;;;;11.44;31.77;102846.69;5035721;28;20448;-72
2022/04/16 08:20:58;;;;;;;5.07;1.20;;;;;;;11.42;31.58;102851.34;5032969;28;20041;-73
2022/04/16 08:23:26;;;;;;;2.72;0.98;;;;;;;11.31;32.02;102845.03;5032240;28;20136;-74
2022/04/16 08:25:53;;;;;;;5.03;1.20;;;;;;;11.64;31.55;102842.53;5027952;28;20132;-74
2022/04/16 08:28:19;;;;;;;3.03;1.15;;;;;;;12.10;30.90;102836.34;5032845;28;20079;-74
2022/04/16 08:30:46;;;;;;;4.65;1.50;;;;;;;10.27;33.38;102840.78;5051110;28;20064;-74
2022/04/16 08:33:14;;;;;;;2.10;1.00;;;;;;;10.64;33.23;102840.03;5051886;28;20069;-74
2022/04/16 08:35:43;;;;;;;4.40;1.10;;;;;;;10.83;33.45;102844.97;5050969;28;20040;-74
2022/04/16 08:38:11;;;;;;;3.88;1.17;;;;;;;11.79;31.85;102845.91;5051487;28;20048;-74
2022/04/16 08:40:38;;;;;;;5.82;1.40;;;;;;;11.07;32.03;102839.66;5051058;28;20404;-74
2022/04/16 08:43:11;;;;;;;4.85;1.30;;;;;;;10.46;33.28;102840.34;5051325;28;20045;-74
2022/04/16 08:45:38;;;;;;;3.28;1.17;;;;;;;10.39;33.61;102841.75;5052074;28;20136;-74
2022/04/16 08:48:05;;;;;;;3.10;0.90;;;;;;;10.69;32.56;102843.28;5051223;28;20128;-74
2022/04/16 08:50:36;;;;;;;5.72;1.40;;;;;;;10.99;31.84;102830.31;5027069;28;20050;-76
2022/04/16 08:53:03;;;;;;;6.75;1.40;;;;;;;11.45;31.87;102843.06;5030307;28;20541;-76
2022/04/16 08:55:29;;;;;;;3.20;1.00;;;;;;;12.28;30.70;102836.78;5030891;28;20140;-76
2022/04/16 08:57:56;;;;;;;2.15;1.05;;;;;;;12.71;29.25;102838.75;5027755;28;20041;-75
2022/04/16 09:00:23;;;;;;;4.30;1.15;;;;;;;11.56;30.92;102833.34;5029042;28;20045;-74
2022/04/16 09:02:56;;;;;;;4.25;1.17;;;;;;;12.00;30.01;102824.59;5025776;28;20081;-74
2022/04/16 09:05:27;;;;;;;5.18;1.90;;;;;;;11.52;30.72;102830.03;5018597;28;20050;-74
2022/04/16 09:07:56;;;;;;;3.08;1.05;;;;;;;12.47;29.81;102829.94;5016369;28;20049;-74
2022/04/16 09:10:27;;;;;;;2.53;1.10;;;;;;;13.47;28.33;102820.03;5028182;28;20075;-74
2022/04/16 09:12:57;;;;;;;5.10;1.40;;;;;;;14.45;26.92;102822.44;5028301;28;20091;-75
2022/04/16 09:15:25;;;;;;;7.43;1.63;;;;;;;14.91;25.98;102823.78;4999382;28;20469;-74
2022/04/16 09:18:02;;;;;;;1.27;0.90;;;;;;;15.26;25.38;102820.63;5013073;28;20497;-74
2022/04/16 09:20:35;;;;;;;4.55;1.10;;;;;;;15.32;23.27;102825.44;5028967;28;20046;-74
2022/04/16 09:23:20;;;;;;;2.42;0.90;;;;;;;15.30;23.39;102830.16;5049961;28;20132;-74
2022/04/16 09:25:48;;;;;;;3.47;1.15;;;;;;;13.43;23.73;102826.69;5050587;28;20065;-73
2022/04/16 09:28:17;;;;;;;3.28;0.98;;;;;;;12.63;25.11;102831.31;5051223;28;20503;-74
2022/04/16 09:30:56;;;;;;;1.58;0.77;;;;;;;13.80;23.87;102833.41;5051786;28;20500;-74
2022/04/16 09:33:23;;;;;;;3.42;1.00;;;;;;;12.67;25.89;102821.13;5043941;28;20386;-73
2022/04/16 09:35:55;;;;;;;5.45;1.30;;;;;;;13.11;24.87;102822.06;5101653;22;20028;-71
2022/04/16 09:38:21;;;;;;;2.88;0.85;;;;;;;14.34;23.92;102831.50;5049132;28;20084;-72
2022/04/16 09:40:48;;;;;;;4.18;1.30;;;;;;;12.61;25.59;102821.63;5013096;28;20481;-74
2022/04/16 09:43:15;;;;;;;3.47;1.15;;;;;;;13.21;25.06;102820.34;5030515;28;20045;-74
2022/04/16 09:45:42;;;;;;;2.33;0.93;;;;;;;13.42;25.08;102816.84;5030680;28;20119;-74
2022/04/16 09:48:12;;;;;;;6.38;1.30;;;;;;;13.16;25.65;102817.19;5030092;28;20128;-74
2022/04/16 09:50:41;;;;;;;3.38;1.20;;;;;;;13.95;25.04;102798.88;5041349;28;20083;-73
2022/04/16 09:53:09;;;;;;;2.03;1.05;;;;;;;14.35;23.21;102813.44;5031684;28;20045;-74
2022/04/16 09:55:35;;;;;;;6.43;0.90;;;;;;;13.70;23.32;102816.28;5050435;28;20508;-74
2022/04/16 09:58:10;;;;;;;2.95;0.90;;;;;;;14.65;23.32;102813.44;5043053;28;20065;-73
2022/04/16 10:00:42;;;;;;;2.05;0.90;;;;;;;15.87;21.35;102824.94;5047376;28;20542;-74
2022/04/16 10:03:29;;;;;;;3.70;1.20;;;;;;;15.99;20.93;102826.50;5046282;28;20060;-73
2022/04/16 10:05:57;;;;;;;4.00;1.00;;;;;;;14.84;21.88;102822.63;5042964;28;20080;-74
2022/04/16 10:08:25;;;;;;;1.42;0.85;;;;;;;14.27;21.95;102814.97;5053777;28;20049;-74
2022/04/16 10:10:57;;;;;;;4.68;1.15;;;;;;;13.77;22.49;102830.97;5039124;28;20069;-74
2022/04/16 10:13:24;;;;;;;1.60;0.80;;;;;;;13.92;22.46;102833.34;5032938;28;20140;-74
2022/04/16 10:15:57;;;;;;;4.65;0.90;;;;;;;13.90;23.31;102832.63;5034345;28;20046;-73
2022/04/16 10:18:24;;;;;;;2.53;0.85;;;;;;;13.80;23.07;102828.03;5040303;28;20048;-74
2022/04/16 10:20:56;;;;;;;2.05;1.10;;;;;;;13.20;23.67;102833.97;5051597;28;20546;-76
2022/04/16 10:23:27;;;;;;;3.15;1.00;;;;;;;14.22;23.29;102833.44;5053316;28;20124;-76
2022/04/16 10:26:11;;;;;;;6.07;1.00;;;;;;;14.49;22.79;102829.28;5053502;28;20063;-76
2022/04/16 10:28:58;;;;;;;3.03;1.30;;;;;;;14.58;23.58;102820.38;5051409;28;20151;-76
2022/04/16 10:31:28;;;;;;;5.82;1.10;;;;;;;15.23;22.48;102819.03;5053330;28;20073;-76
2022/04/16 10:34:04;;;;;;;4.82;1.35;;;;;;;15.39;22.37;102821.19;5053653;28;20128;-77
2022/04/16 10:36:41;;;;;;;2.50;1.38;;;;;;;15.16;22.82;102817.06;5037870;28;20136;-77
2022/04/16 10:39:15;;;;;;;5.80;1.27;;;;;;;15.53;22.84;102816.34;5028707;28;20064;-75
2022/04/16 10:41:56;;;;;;;1.83;1.05;;;;;;;15.67;22.70;102803.31;5032183;28;20049;-74
2022/04/16 10:44:24;;;;;;;4.50;0.95;;;;;;;16.56;22.09;102808.38;5033372;28;20049;-76
2022/04/16 10:46:52;;;;;;;2.10;1.20;;;;;;;16.14;21.83;102806.06;5032481;28;20069;-77
2022/04/16 10:49:20;;;;;;;5.43;1.30;;;;;;;15.13;22.02;102791.13;5044688;28;20133;-78
2022/04/16 10:51:47;;;;;;;3.55;0.90;;;;;;;15.44;21.96;102793.72;5041134;28;20132;-76
2022/04/16 10:54:15;;;;;;;3.45;1.20;;;;;;;14.82;22.53;102803.88;5050474;28;20049;-76
2022/04/16 10:56:51;;;;;;;2.45;1.05;;;;;;;13.95;23.09;102804.28;5034039;28;20128;-76
2022/04/16 10:59:38;;;;;;;3.88;1.13;;;;;;;12.86;23.54;102807.06;5043851;28;20504;-77
2022/04/16 11:02:27;;;;;;;3.80;1.20;;;;;;;13.58;22.46;102809.19;5052849;28;20394;-76
2022/04/16 11:05:05;;;;;;;1.38;0.73;;;;;;;13.82;22.92;102819.78;5052539;28;20499;-75
2022/04/16 11:07:36;;;;;;;1.67;1.10;;;;;;;12.79;25.08;102806.69;5042630;28;20053;-76
2022/04/16 11:10:05;;;;;;;1.63;1.08;;;;;;;13.03;24.89;102800.31;5031128;28;20514;-77
2022/04/16 11:12:32;;;;;;;2.28;1.08;;;;;;;13.16;24.97;102806.41;5033549;28;20099;-76
2022/04/16 11:14:59;;;;;;;3.50;1.20;;;;;;;13.01;24.95;102800.44;5033048;28;20072;-75
2022/04/16 11:17:27;;;;;;;3.70;1.13;;;;;;;13.63;23.72;102806.09;5032768;28;20497;-76
2022/04/16 11:20:02;;;;;;;3.67;1.00;;;;;;;14.79;22.73;102808.69;5033935;28;20041;-75
2022/04/16 11:22:29;;;;;;;3.33;0.80;;;;;;;15.20;22.42;102797.69;5041074;28;20497;-75
2022/04/16 11:24:58;;;;;;;1.90;1.08;;;;;;;15.83;21.94;102802.72;5041094;28;20068;-76
2022/04/16 11:36:05;;;;;;;2.90;0.95;;;;;;;14.45;22.50;102788.19;5034923;28;20045;-76
2022/04/16 11:38:33;;;;;;;3.75;0.93;;;;;;;15.25;21.94;102799.97;5053103;28;20130;-75
2022/04/16 11:41:10;;;;;;;2.92;0.90;;;;;;;16.91;20.69;102795.94;5047320;28;20131;-76
2022/04/16 11:43:45;;;;;;;3.35;0.90;;;;;;;18.12;19.50;102791.81;5039699;28;20061;-75
2022/04/16 11:46:13;;;;;;;2.28;1.15;;;;;;;19.90;17.93;102795.28;5011381;28;20041;-75
2022/04/16 11:48:45;;;;;;;2.88;0.98;;;;;;;17.96;18.74;102792.56;5042646;28;20136;-75
2022/04/16 11:51:12;;;;;;;;;;;;;;;16.91;18.84;102798.66;5044225;28;20524;-76
2022/04/16 11:53:48;;;;;;;3.15;0.88;;;;;;;15.99;19.85;102799.41;5031250;28;19944;-77